createdAt,value
2022-11-16T00:01:22.985Z,85.27
2022-11-16T00:03:23.934Z,84.7
2022-11-16T00:05:28.269Z,84.85
2022-11-16T00:07:26.065Z,84.73
2022-11-16T00:09:27.260Z,84.96
2022-11-16T00:11:28.962Z,83.9
2022-11-16T00:13:30.396Z,84.24
2022-11-16T00:15:31.902Z,84.89
2022-11-16T00:17:33.496Z,84.21
2022-11-16T00:19:34.834Z,83.77
2022-11-16T00:21:36.431Z,84.55
2022-11-16T00:23:37.790Z,84.97
2022-11-16T00:25:38.912Z,84.19
2022-11-16T00:27:40.513Z,83.65
2022-11-16T00:29:42.124Z,84.82
2022-11-16T00:31:43.092Z,87.05
2022-11-16T00:33:44.995Z,87.78
2022-11-16T00:37:48.403Z,87.52
2022-11-16T00:39:49.687Z,88.1
2022-11-16T00:41:50.907Z,88.71
2022-11-16T00:43:52.378Z,88.8
2022-11-16T00:45:53.563Z,89.39
2022-11-16T00:48:00.249Z,90.04
2022-11-16T00:49:56.537Z,89.91
2022-11-16T00:51:58.165Z,90.1
2022-11-16T00:53:59.731Z,89.44
2022-11-16T00:56:01.303Z,88.36
2022-11-16T00:58:02.692Z,86.09
2022-11-16T01:00:04.595Z,85.56
2022-11-16T01:02:05.628Z,89.58
2022-11-16T01:04:07.103Z,88.47
2022-11-16T01:06:08.202Z,86.41
2022-11-16T01:08:09.894Z,85.64
2022-11-16T01:10:11.162Z,85.97
2022-11-16T01:12:12.549Z,85.64
2022-11-16T01:14:22.836Z,85.94
2022-11-16T01:16:15.151Z,86.51
2022-11-16T01:20:18.279Z,86.49
2022-11-16T01:22:19.290Z,86.96
2022-11-16T01:24:20.910Z,86.92
2022-11-16T01:26:22.386Z,86.87
2022-11-16T01:28:24.061Z,87.8
2022-11-16T01:30:25.951Z,87.62
2022-11-16T01:32:26.983Z,87.34
2022-11-16T01:34:28.363Z,87.08
2022-11-16T01:36:29.603Z,86.45
2022-11-16T01:38:31.003Z,86.71
2022-11-16T01:41:16.345Z,88.62
2022-11-16T01:43:17.764Z,89.81
2022-11-16T01:45:18.721Z,90.76
2022-11-16T01:47:20.601Z,91.27
2022-11-16T01:49:21.847Z,89.79
2022-11-16T01:51:23.172Z,88.56
2022-11-16T01:53:24.441Z,89.08
2022-11-16T01:55:25.492Z,88.95
2022-11-16T01:57:26.548Z,89.23
2022-11-16T01:59:28.410Z,89.2
2022-11-16T02:03:30.500Z,92.64
2022-11-16T02:05:31.765Z,93.2
2022-11-16T02:07:33.743Z,93.41
2022-11-16T02:09:35.487Z,93.68
2022-11-16T02:13:38.427Z,94.26
2022-11-16T02:15:39.569Z,94.51
2022-11-16T02:17:40.582Z,94.63
2022-11-16T02:19:41.631Z,94.79
2022-11-16T02:21:43.340Z,94.48
2022-11-16T02:23:45.191Z,94.18
2022-11-16T02:25:46.364Z,94.29
2022-11-16T02:27:47.531Z,94.23
2022-11-16T02:29:48.521Z,94.43
2022-11-16T02:31:49.673Z,94.05
2022-11-16T02:33:51.373Z,93.06
2022-11-16T02:35:52.657Z,92.17
2022-11-16T02:37:53.864Z,91.9
2022-11-16T02:39:55.657Z,92.95
2022-11-16T02:41:56.774Z,94.01
2022-11-16T02:43:58.277Z,93.48
2022-11-16T02:46:00.122Z,92.72
2022-11-16T02:48:01.247Z,92.67
2022-11-16T02:50:02.373Z,93.32
2022-11-16T02:52:04.016Z,93.71
2022-11-16T02:56:07.490Z,94.36
2022-11-16T02:58:08.626Z,94.58
2022-11-16T03:00:10.432Z,94.85
2022-11-16T03:02:12.181Z,95.1
2022-11-16T03:04:13.676Z,95.42
2022-11-16T03:06:14.920Z,95.71
2022-11-16T03:08:16.729Z,94.3
2022-11-16T03:10:18.253Z,94.54
2022-11-16T03:12:19.754Z,93.65
2022-11-16T03:14:20.885Z,92.88
2022-11-16T03:16:22.675Z,93.03
2022-11-16T03:18:24.500Z,92.73
2022-11-16T03:20:25.882Z,92.91
2022-11-16T03:22:27.579Z,93.16
2022-11-16T03:24:28.650Z,93.71
2022-11-16T03:28:31.870Z,94.78
2022-11-16T03:30:32.890Z,94.9
2022-11-16T03:32:34.344Z,95.01
2022-11-16T03:34:35.442Z,94.85
2022-11-16T03:38:37.699Z,93.39
2022-11-16T03:40:38.747Z,92.05
2022-11-16T03:42:40.570Z,93.27
2022-11-16T03:44:42.504Z,93.47
2022-11-16T03:46:44.415Z,92.66
2022-11-16T03:48:45.537Z,92.67
2022-11-16T03:50:46.514Z,93.17
2022-11-16T03:52:48.207Z,93.6
2022-11-16T03:54:49.678Z,94.06
2022-11-16T03:56:51.589Z,94.42
2022-11-16T03:58:53.230Z,94.74
2022-11-16T04:00:55.042Z,94.77
2022-11-16T04:02:56.359Z,94.85
2022-11-16T04:04:57.544Z,94.85
2022-11-16T04:06:59.187Z,94.89
2022-11-16T04:09:00.141Z,94.74
2022-11-16T04:11:01.987Z,94.43
2022-11-16T04:13:03.290Z,94.39
2022-11-16T04:15:05.129Z,94.49
2022-11-16T04:17:06.234Z,94.17
2022-11-16T04:19:07.494Z,94.31
2022-11-16T04:21:09.114Z,94.02
2022-11-16T04:23:10.791Z,93.87
2022-11-16T04:27:13.447Z,94.72
2022-11-16T04:29:15.212Z,94.92
2022-11-16T04:31:16.591Z,95.15
2022-11-16T04:33:18.389Z,95.02
2022-11-16T04:37:21.141Z,95.03
2022-11-16T04:39:22.792Z,94.98
2022-11-16T04:41:23.976Z,95.03
2022-11-16T04:43:25.553Z,95.04
2022-11-16T04:45:27.411Z,95.06
2022-11-16T04:47:28.468Z,95.09
2022-11-16T04:49:30.284Z,95.15
2022-11-16T04:51:31.259Z,95.22
2022-11-16T04:53:32.616Z,95.28
2022-11-16T04:55:33.967Z,95.22
2022-11-16T04:57:35.717Z,95.28
2022-11-16T04:59:36.995Z,95.34
2022-11-16T05:01:38.984Z,95.32
2022-11-16T05:03:40.324Z,95.32
2022-11-16T05:05:41.482Z,95.38
2022-11-16T05:07:43.340Z,95.39
2022-11-16T05:09:44.513Z,95.47
2022-11-16T05:11:46.156Z,95.48
2022-11-16T05:13:47.253Z,95.51
2022-11-16T05:15:48.288Z,95.53
2022-11-16T05:19:51.593Z,95.47
2022-11-16T05:21:52.755Z,95.54
2022-11-16T05:23:54.090Z,95.6
2022-11-16T05:25:55.299Z,95.72
2022-11-16T05:27:56.455Z,95.73
2022-11-16T05:29:58.016Z,95.74
2022-11-16T05:31:58.918Z,95.75
2022-11-16T05:34:00.007Z,95.86
2022-11-16T05:36:01.541Z,95.78
2022-11-16T05:38:02.631Z,95.68
2022-11-16T05:40:03.563Z,95.75
2022-11-16T05:42:05.303Z,95.84
2022-11-16T05:44:06.734Z,95.9
2022-11-16T05:46:08.433Z,95.83
2022-11-16T05:48:10.241Z,95.84
2022-11-16T05:50:11.979Z,95.85
2022-11-16T05:52:13.656Z,95.76
2022-11-16T05:54:15.179Z,95.77
2022-11-16T05:56:16.169Z,95.71
2022-11-16T05:58:17.212Z,95.65
2022-11-16T06:02:20.170Z,95.73
2022-11-16T06:04:23.296Z,95.81
2022-11-16T06:06:22.672Z,95.88
2022-11-16T06:08:24.558Z,95.78
2022-11-16T06:10:25.568Z,95.73
2022-11-16T06:12:27.062Z,95.59
2022-11-16T06:14:28.237Z,95.5
2022-11-16T06:16:30.018Z,95.41
2022-11-16T06:18:32.065Z,95.4
2022-11-16T06:20:32.652Z,95.41
2022-11-16T06:22:34.457Z,95.4
2022-11-16T06:24:36.221Z,95.46
2022-11-16T06:26:37.182Z,95.46
2022-11-16T06:28:38.619Z,95.5
2022-11-16T06:30:40.479Z,95.48
2022-11-16T06:34:43.056Z,95.56
2022-11-16T06:36:44.373Z,95.58
2022-11-16T06:38:45.651Z,95.61
2022-11-16T06:40:47.584Z,95.64
2022-11-16T06:44:50.544Z,95.65
2022-11-16T06:46:52.440Z,95.63
2022-11-16T06:48:53.561Z,95.61
2022-11-16T06:50:55.293Z,95.57
2022-11-16T06:52:57.073Z,95.53
2022-11-16T06:54:58.076Z,95.5
2022-11-16T06:56:59.584Z,95.33
2022-11-16T06:59:00.951Z,95.29
2022-11-16T07:01:02.240Z,95.27
2022-11-16T07:03:03.305Z,95.24
2022-11-16T07:05:04.518Z,95.3
2022-11-16T07:07:06.221Z,95.2
2022-11-16T07:09:07.503Z,95.16
2022-11-16T07:11:08.756Z,95.18
2022-11-16T07:13:10.655Z,95.17
2022-11-16T07:15:12.420Z,95.22
2022-11-16T07:17:13.909Z,95.21
2022-11-16T07:19:24.236Z,95.2
2022-11-16T07:21:16.883Z,95.14
2022-11-16T07:23:18.455Z,95.07
2022-11-16T07:25:19.755Z,95.05
2022-11-16T07:27:21.640Z,95
2022-11-16T07:29:23.224Z,94.96
2022-11-16T07:33:25.848Z,94.99
2022-11-16T07:35:27.394Z,95.02
2022-11-16T07:37:29.254Z,95.04
2022-11-16T07:39:30.726Z,95.1
2022-11-16T07:43:33.460Z,95.18
2022-11-16T07:45:34.759Z,95.17
2022-11-16T07:47:35.826Z,95.22
2022-11-16T07:49:36.895Z,95.23
2022-11-16T07:51:38.618Z,95.17
2022-11-16T07:53:40.431Z,95.13
2022-11-16T07:55:42.301Z,95.11
2022-11-16T07:57:43.644Z,94.95
2022-11-16T07:59:44.869Z,94.79
2022-11-16T08:01:46.762Z,94.75
2022-11-16T08:03:48.186Z,94.79
2022-11-16T08:05:49.879Z,94.86
2022-11-16T08:07:51.697Z,94.97
2022-11-16T08:09:53.532Z,94.89
2022-11-16T08:11:54.744Z,94.93
2022-11-16T08:13:56.206Z,94.96
2022-11-16T08:15:57.524Z,94.86
2022-11-16T08:17:58.528Z,94.85
2022-11-16T08:19:59.827Z,94.75
2022-11-16T08:22:00.760Z,94.41
2022-11-16T08:24:46.145Z,94.29
2022-11-16T08:26:47.040Z,94.3
2022-11-16T08:28:48.684Z,94.45
2022-11-16T08:30:53.649Z,94.44
2022-11-16T08:32:52.039Z,94.33
2022-11-16T08:34:53.268Z,94.23
2022-11-16T08:36:54.464Z,94.29
2022-11-16T08:38:55.742Z,94.03
2022-11-16T08:40:56.949Z,94.08
2022-11-16T08:42:58.166Z,94.14
2022-11-16T08:44:59.606Z,94.1
2022-11-16T08:47:01.263Z,94.11
2022-11-16T08:49:02.597Z,93.72
2022-11-16T08:53:05.869Z,93.31
2022-11-16T08:55:07.441Z,93.36
2022-11-16T08:57:08.353Z,93.27
2022-11-16T08:59:09.561Z,92.83
2022-11-16T09:03:13.116Z,93.24
2022-11-16T09:05:14.572Z,93.22
2022-11-16T09:07:15.877Z,93.23
2022-11-16T09:09:17.331Z,92.64
2022-11-16T09:11:19.218Z,92.72
2022-11-16T09:13:20.563Z,92.53
2022-11-16T09:15:21.501Z,92.58
2022-11-16T09:17:23.474Z,92.46
2022-11-16T09:19:24.972Z,91.85
2022-11-16T09:21:25.927Z,92.27
2022-11-16T09:23:27.188Z,92.19
2022-11-16T09:25:29.005Z,91.65
2022-11-16T09:27:30.723Z,91.71
2022-11-16T09:29:31.966Z,91.57
2022-11-16T09:31:33.755Z,91.11
2022-11-16T09:33:35.178Z,90.76
2022-11-16T09:35:36.646Z,90.31
2022-11-16T09:37:37.969Z,90.37
2022-11-16T09:39:39.052Z,89.61
2022-11-16T09:41:40.511Z,90.07
2022-11-16T09:43:45.685Z,89.73
2022-11-16T09:45:42.842Z,89.9
2022-11-16T09:47:44.019Z,89.63
2022-11-16T09:51:46.358Z,89
2022-11-16T09:53:47.690Z,89.16
2022-11-16T09:55:48.916Z,88.99
2022-11-16T09:57:50.769Z,89.64
2022-11-16T10:01:52.980Z,89.61
2022-11-16T10:03:54.119Z,88.55
2022-11-16T10:05:55.724Z,88.4
2022-11-16T10:07:57.067Z,88.85
2022-11-16T10:09:58.715Z,88.58
2022-11-16T10:12:00.006Z,88.7
2022-11-16T10:14:04.291Z,87.97
2022-11-16T10:16:02.915Z,88.87
2022-11-16T10:18:04.505Z,87.93
2022-11-16T10:20:06.670Z,87.52
2022-11-16T10:22:07.949Z,88.46
2022-11-16T10:24:08.852Z,87.09
2022-11-16T10:26:10.511Z,86.75
2022-11-16T10:28:12.206Z,86.73
2022-11-16T10:30:13.245Z,86.93
2022-11-16T10:34:15.666Z,86.06
2022-11-16T10:36:17.199Z,84.58
2022-11-16T10:38:18.448Z,83.97
2022-11-16T10:40:19.555Z,83.74
2022-11-16T10:42:20.642Z,84.51
2022-11-16T10:44:21.725Z,83.2
2022-11-16T10:46:23.178Z,83.68
2022-11-16T10:50:26.529Z,83.96
2022-11-16T10:52:27.658Z,81.53
2022-11-16T10:54:28.893Z,81.48
2022-11-16T10:56:30.106Z,82.91
2022-11-16T10:58:31.964Z,81.98
2022-11-16T11:00:33.029Z,81.53
2022-11-16T11:02:34.882Z,81.93
2022-11-16T11:04:36.374Z,82.21
2022-11-16T11:06:37.303Z,82.78
2022-11-16T11:08:38.992Z,81.72
2022-11-16T11:10:40.436Z,81.91
2022-11-16T11:12:41.785Z,82.87
2022-11-16T11:14:42.941Z,82.49
2022-11-16T11:16:44.539Z,83.01
2022-11-16T11:18:46.328Z,83.94
2022-11-16T11:22:49.069Z,83.79
2022-11-16T11:24:50.581Z,83.8
2022-11-16T11:26:52.179Z,83.15
2022-11-16T11:28:53.306Z,83.2
2022-11-16T11:32:55.950Z,83
2022-11-16T11:34:57.772Z,82.07
2022-11-16T11:36:59.025Z,82.06
2022-11-16T11:39:00.396Z,82.64
2022-11-16T11:41:01.764Z,82.03
2022-11-16T11:43:03.311Z,78.98
2022-11-16T11:45:04.590Z,78.93
2022-11-16T11:47:42.681Z,77.92
2022-11-16T11:49:08.204Z,78.67
2022-11-16T11:51:09.167Z,78.93
2022-11-16T11:53:10.659Z,79.72
2022-11-16T11:55:12.321Z,79.15
2022-11-16T11:57:13.272Z,80
2022-11-16T11:59:14.928Z,79.63
2022-11-16T12:01:19.493Z,79.34
2022-11-16T12:03:17.602Z,79.07
2022-11-16T12:05:18.715Z,79.16
2022-11-16T12:07:19.674Z,78.38
2022-11-16T12:09:20.916Z,79.47
2022-11-16T12:11:22.371Z,79.2
2022-11-16T12:15:25.090Z,79.56
2022-11-16T12:17:26.840Z,79.21
2022-11-16T12:19:27.803Z,80.36
2022-11-16T12:21:29.637Z,80.09
2022-11-16T12:23:30.680Z,79.98
2022-11-16T12:25:31.691Z,80.1
2022-11-16T12:27:32.700Z,79.58
2022-11-16T12:29:33.940Z,79.23
2022-11-16T12:31:35.350Z,79.29
2022-11-16T12:33:36.525Z,79.08
2022-11-16T12:35:38.060Z,79.45
2022-11-16T12:37:39.309Z,79.94
2022-11-16T12:39:40.459Z,79.56
2022-11-16T12:41:41.839Z,81.69
2022-11-16T12:43:43.519Z,81.73
2022-11-16T12:47:46.673Z,81.26
2022-11-16T12:49:47.730Z,80.08
2022-11-16T12:51:48.960Z,77.77
2022-11-16T12:53:50.437Z,77.62
2022-11-16T12:55:51.378Z,76.71
2022-11-16T12:57:52.429Z,73.91
2022-11-16T12:59:53.744Z,73.16
2022-11-16T13:03:55.663Z,73.31
2022-11-16T13:05:57.398Z,72.76
2022-11-16T13:07:58.357Z,74.52
2022-11-16T13:10:00.159Z,74.33
2022-11-16T13:12:00.997Z,75.08
2022-11-16T13:14:02.956Z,75.55
2022-11-16T13:16:04.281Z,76.46
2022-11-16T13:18:05.210Z,75.83
2022-11-16T13:20:10.286Z,75.63
2022-11-16T13:22:08.439Z,76.35
2022-11-16T13:24:09.309Z,77.33
2022-11-16T13:26:10.523Z,76.98
2022-11-16T13:28:11.460Z,77.3
2022-11-16T13:30:12.487Z,78.86
2022-11-16T13:32:13.425Z,78.37
2022-11-16T13:34:14.478Z,78.26
2022-11-16T13:36:16.177Z,77.74
2022-11-16T13:38:17.239Z,77.72
2022-11-16T13:40:18.380Z,77.2
2022-11-16T13:42:19.925Z,75.2
2022-11-16T13:44:20.889Z,75.11
2022-11-16T13:46:40.739Z,74.45
2022-11-16T13:48:23.938Z,76.02
2022-11-16T13:50:25.523Z,76.39
2022-11-16T13:52:31.700Z,76.59
2022-11-16T13:56:29.628Z,78.81
2022-11-16T13:58:30.791Z,77.96
2022-11-16T14:00:32.270Z,78.85
2022-11-16T14:02:33.324Z,78.47
2022-11-16T14:04:34.974Z,78.41
2022-11-16T14:06:36.291Z,78.51
2022-11-16T14:08:38.016Z,78.75
2022-11-16T14:10:39.272Z,77.27
2022-11-16T14:12:40.644Z,76.11
2022-11-16T14:14:41.624Z,76.52
2022-11-16T14:16:42.922Z,77.25
2022-11-16T14:18:44.431Z,76.23
2022-11-16T14:20:45.547Z,76.66
2022-11-16T14:22:46.983Z,76.14
2022-11-16T14:24:48.019Z,76.31
2022-11-16T14:26:48.983Z,76.23
2022-11-16T14:28:50.627Z,77.25
2022-11-16T14:30:51.876Z,77.75
2022-11-16T14:32:52.870Z,78.26
2022-11-16T14:34:54.488Z,79.37
2022-11-16T14:36:55.592Z,79.9
2022-11-16T14:38:56.922Z,80.42
2022-11-16T14:40:59.795Z,80.85
2022-11-16T14:45:01.152Z,80.52
2022-11-16T14:47:02.526Z,80.38
2022-11-16T14:49:04.136Z,80.92
2022-11-16T14:51:05.317Z,80.63
2022-11-16T14:55:07.875Z,80.49
2022-11-16T14:57:09.633Z,80.76
2022-11-16T14:59:10.603Z,80.95
2022-11-16T15:01:12.311Z,80.78
2022-11-16T15:03:13.231Z,80.59
2022-11-16T15:05:14.886Z,81.34
2022-11-16T15:07:16.115Z,81.17
2022-11-16T15:09:17.287Z,80.83
2022-11-16T15:10:01.097Z,80.81
2022-11-16T15:12:03.010Z,81.07
2022-11-16T15:14:03.943Z,81.55
2022-11-16T15:16:05.152Z,81.88
2022-11-16T15:18:06.157Z,81.64
2022-11-16T15:20:07.737Z,81.84
2022-11-16T15:22:08.853Z,82.44
2022-11-16T15:24:29.141Z,82.69
2022-11-16T15:26:11.404Z,82.82
2022-11-16T15:28:13.109Z,82.1
2022-11-16T15:32:15.847Z,82.91
2022-11-16T15:34:17.710Z,84.21
2022-11-16T15:36:19.264Z,85.67
2022-11-16T15:38:21.088Z,85.57
2022-11-16T15:40:22.684Z,84.98
2022-11-16T15:42:24.510Z,84.98
2022-11-16T15:44:26.297Z,85.21
2022-11-16T15:46:28.088Z,85.57
2022-11-16T15:48:29.245Z,86.59
2022-11-16T15:50:30.490Z,87.35
2022-11-16T15:52:32.329Z,87.89
2022-11-16T15:54:33.664Z,87.93
2022-11-16T15:56:35.418Z,88
2022-11-16T15:58:37.462Z,87.91
2022-11-16T16:00:39.250Z,88.66
2022-11-16T16:02:40.309Z,89.16
2022-11-16T16:04:41.719Z,89.75
2022-11-16T16:06:42.726Z,89.93
2022-11-16T16:08:44.165Z,90.04
2022-11-16T16:10:45.556Z,90.84
2022-11-16T16:14:48.298Z,91.54
2022-11-16T16:16:50.014Z,91.44
2022-11-16T16:18:51.389Z,90.47
2022-11-16T16:20:52.925Z,89.8
2022-11-16T16:22:54.050Z,89.52
2022-11-16T16:24:55.054Z,89.15
2022-11-16T16:26:56.217Z,88.61
2022-11-16T16:28:57.758Z,88.67
2022-11-16T16:30:59.193Z,88.46
2022-11-16T16:33:00.976Z,88.44
2022-11-16T16:35:02.696Z,88.4
2022-11-16T16:37:03.882Z,89.3
2022-11-16T16:39:05.031Z,90.57
2022-11-16T16:41:06.317Z,90.74
2022-11-16T16:43:07.230Z,90.73
2022-11-16T16:45:08.532Z,90.66
2022-11-16T16:47:10.311Z,90.59
2022-11-16T16:49:11.308Z,90.67
2022-11-16T16:51:12.914Z,90.72
2022-11-16T16:53:14.419Z,91.02
2022-11-16T16:55:16.324Z,91.27
2022-11-16T16:57:17.958Z,91.83
2022-11-16T16:59:19.935Z,91.67
2022-11-16T17:03:23.151Z,92.02
2022-11-16T17:05:24.209Z,91.88
2022-11-16T17:07:25.350Z,91.88
2022-11-16T17:09:35.681Z,91.78
2022-11-16T17:13:29.253Z,92.25
2022-11-16T17:15:31.023Z,92.19
2022-11-16T17:17:31.998Z,92.08
2022-11-16T17:19:33.699Z,91.86
2022-11-16T17:21:35.387Z,90.93
2022-11-16T17:23:37.107Z,90.61
2022-11-16T17:25:38.816Z,90.4
2022-11-16T17:27:40.723Z,90.18
2022-11-16T17:29:42.498Z,89.4
2022-11-16T17:31:43.461Z,89.13
2022-11-16T17:33:44.430Z,89.19
2022-11-16T17:35:45.985Z,89.49
2022-11-16T17:37:47.027Z,89.29
2022-11-16T17:39:48.885Z,89.14
2022-11-16T17:41:50.042Z,89.33
2022-11-16T17:43:51.667Z,89.15
2022-11-16T17:45:52.896Z,89.71
2022-11-16T17:47:53.914Z,89.56
2022-11-16T17:49:55.771Z,89.96
2022-11-16T17:51:56.906Z,89.99
2022-11-16T17:55:59.320Z,90.59
2022-11-16T17:58:00.853Z,91.31
2022-11-16T18:00:02.655Z,92.03
2022-11-16T18:02:04.585Z,91.68
2022-11-16T18:04:05.926Z,91.66
2022-11-16T18:06:06.928Z,91.84
2022-11-16T18:08:08.790Z,91.83
2022-11-16T18:10:12.709Z,92.34
2022-11-16T18:12:11.933Z,92.66
2022-11-16T18:14:12.969Z,92.86
2022-11-16T18:16:14.020Z,91.79
2022-11-16T18:18:24.856Z,91.47
2022-11-16T18:20:17.787Z,90.64
2022-11-16T18:22:18.944Z,90.86
2022-11-16T18:24:19.902Z,91.2
2022-11-16T18:26:21.407Z,90.56
2022-11-16T18:28:22.745Z,90.65
2022-11-16T18:30:23.845Z,89.22
2022-11-16T18:32:25.172Z,88.4
2022-11-16T18:34:26.766Z,88.25
2022-11-16T18:38:29.329Z,88.2
2022-11-16T18:40:30.613Z,88.58
2022-11-16T18:42:31.648Z,88.75
2022-11-16T18:44:32.663Z,88.72
2022-11-16T18:46:33.915Z,88.13
2022-11-16T18:48:35.049Z,87.59
2022-11-16T18:50:36.158Z,88
2022-11-16T18:52:38.065Z,89.14
2022-11-16T18:54:39.446Z,88.4
2022-11-16T18:56:40.501Z,87.31
2022-11-16T18:58:50.663Z,87.24
2022-11-16T19:00:43.476Z,86.96
2022-11-16T19:02:45.044Z,88.61
2022-11-16T19:04:46.163Z,89.37
2022-11-16T19:06:47.318Z,88.46
2022-11-16T19:08:53.879Z,88.95
2022-11-16T19:10:49.953Z,89.25
2022-11-16T19:12:51.127Z,89.42
2022-11-16T19:14:53.020Z,87.81
2022-11-16T19:16:57.055Z,87.4
2022-11-16T19:18:55.668Z,89.54
2022-11-16T19:20:57.445Z,88.43
2022-11-16T19:22:59.013Z,86.53
2022-11-16T19:27:01.937Z,86.19
2022-11-16T19:29:03.257Z,86.55
2022-11-16T19:31:04.884Z,86.48
2022-11-16T19:33:06.361Z,87.07
2022-11-16T19:37:09.061Z,88.25
2022-11-16T19:39:10.407Z,89.11
2022-11-16T19:41:11.421Z,88.85
2022-11-16T19:43:13.311Z,87.41
2022-11-16T19:45:15.162Z,87.29
2022-11-16T19:47:16.418Z,86.03
2022-11-16T19:49:20.062Z,86.18
2022-11-16T19:51:20.135Z,86.83
2022-11-16T19:53:21.758Z,86.77
2022-11-16T19:55:22.793Z,88.13
2022-11-16T19:57:24.568Z,88.4
2022-11-16T19:59:25.553Z,88.13
2022-11-16T20:01:27.010Z,88.26
2022-11-16T20:03:28.107Z,88.9
2022-11-16T20:05:29.505Z,88.52
2022-11-16T20:07:30.733Z,87.59
2022-11-16T20:09:31.837Z,87.88
